sensor_id;sensor_type;location;lat;lon;timestamp;pressure;altitude;pressure_sealevel;temperature;humidity
70971;BME280;58632;51.718;19.446;2023-02-20T00:01:47;99901.48;;;0.15;100.00
70971;BME280;58632;51.718;19.446;2023-02-20T00:04:13;99905.52;;;0.20;100.00
70971;BME280;58632;51.718;19.446;2023-02-20T00:06:39;99906.05;;;0.25;100.00
70971;BME280;58632;51.718;19.446;2023-02-20T00:09:05;99906.30;;;0.28;100.00
70971;BME280;58632;51.718;19.446;2023-02-20T00:11:30;99903.20;;;0.29;100.00
70971;BME280;58632;51.718;19.446;2023-02-20T00:13:56;99902.83;;;0.29;100.00
70971;BME280;58632;51.718;19.446;2023-02-20T00:16:21;99898.20;;;0.31;100.00
70971;BME280;58632;51.718;19.446;2023-02-20T00:18:47;99894.23;;;0.32;100.00
70971;BME280;58632;51.718;19.446;2023-02-20T00:21:13;99891.89;;;0.34;100.00
70971;BME280;58632;51.718;19.446;2023-02-20T00:23:38;99893.81;;;0.37;100.00
70971;BME280;58632;51.718;19.446;2023-02-20T00:26:07;99897.34;;;0.39;100.00
70971;BME280;58632;51.718;19.446;2023-02-20T00:28:32;99901.64;;;0.38;100.00
70971;BME280;58632;51.718;19.446;2023-02-20T00:30:58;99899.86;;;0.39;100.00
70971;BME280;58632;51.718;19.446;2023-02-20T00:33:24;99897.94;;;0.40;100.00
70971;BME280;58632;51.718;19.446;2023-02-20T00:35:49;99903.77;;;0.40;100.00
70971;BME280;58632;51.718;19.446;2023-02-20T00:38:15;99900.89;;;0.40;100.00
70971;BME280;58632;51.718;19.446;2023-02-20T00:40:41;99907.25;;;0.39;100.00
70971;BME280;58632;51.718;19.446;2023-02-20T00:43:06;99900.98;;;0.40;100.00
70971;BME280;58632;51.718;19.446;2023-02-20T00:45:32;99897.36;;;0.41;100.00
70971;BME280;58632;51.718;19.446;2023-02-20T00:47:57;99897.52;;;0.43;100.00
70971;BME280;58632;51.718;19.446;2023-02-20T00:50:23;99898.81;;;0.45;100.00
70971;BME280;58632;51.718;19.446;2023-02-20T00:52:48;99900.70;;;0.46;100.00
70971;BME280;58632;51.718;19.446;2023-02-20T00:55:14;99902.48;;;0.46;100.00
70971;BME280;58632;51.718;19.446;2023-02-20T00:57:39;99908.13;;;0.45;100.00
70971;BME280;58632;51.718;19.446;2023-02-20T01:00:06;99906.02;;;0.45;100.00
70971;BME280;58632;51.718;19.446;2023-02-20T01:02:32;99902.43;;;0.42;100.00
70971;BME280;58632;51.718;19.446;2023-02-20T01:04:57;99903.71;;;0.40;100.00
70971;BME280;58632;51.718;19.446;2023-02-20T01:07:23;99895.27;;;0.37;100.00
70971;BME280;58632;51.718;19.446;2023-02-20T01:09:48;99892.95;;;0.37;100.00
70971;BME280;58632;51.718;19.446;2023-02-20T01:12:14;99889.64;;;0.36;100.00
70971;BME280;58632;51.718;19.446;2023-02-20T01:14:40;99886.36;;;0.36;100.00
70971;BME280;58632;51.718;19.446;2023-02-20T01:17:06;99892.73;;;0.33;100.00
70971;BME280;58632;51.718;19.446;2023-02-20T01:19:31;99899.14;;;0.31;100.00
70971;BME280;58632;51.718;19.446;2023-02-20T01:21:57;99896.41;;;0.29;100.00
70971;BME280;58632;51.718;19.446;2023-02-20T01:24:23;99896.60;;;0.28;100.00
70971;BME280;58632;51.718;19.446;2023-02-20T01:26:48;99880.60;;;0.24;100.00
70971;BME280;58632;51.718;19.446;2023-02-20T01:29:14;99884.17;;;0.20;100.00
70971;BME280;58632;51.718;19.446;2023-02-20T01:31:45;99886.03;;;0.16;100.00
70971;BME280;58632;51.718;19.446;2023-02-20T01:34:10;99883.09;;;0.18;100.00
70971;BME280;58632;51.718;19.446;2023-02-20T01:36:36;99876.59;;;0.19;100.00
70971;BME280;58632;51.718;19.446;2023-02-20T01:39:02;99865.41;;;0.18;100.00
70971;BME280;58632;51.718;19.446;2023-02-20T01:41:27;99860.08;;;0.17;100.00
70971;BME280;58632;51.718;19.446;2023-02-20T01:43:54;99861.45;;;0.15;100.00
70971;BME280;58632;51.718;19.446;2023-02-20T01:48:47;99863.81;;;0.11;100.00
70971;BME280;58632;51.718;19.446;2023-02-20T01:51:13;99868.64;;;0.09;100.00
70971;BME280;58632;51.718;19.446;2023-02-20T01:53:39;99871.20;;;0.06;100.00
70971;BME280;58632;51.718;19.446;2023-02-20T01:56:05;99874.50;;;0.04;100.00
70971;BME280;58632;51.718;19.446;2023-02-20T01:58:38;99875.73;;;0.04;100.00
70971;BME280;58632;51.718;19.446;2023-02-20T02:01:04;99868.48;;;0.05;100.00
70971;BME280;58632;51.718;19.446;2023-02-20T02:03:31;99865.92;;;0.08;100.00
70971;BME280;58632;51.718;19.446;2023-02-20T02:05:59;99849.91;;;0.09;100.00
70971;BME280;58632;51.718;19.446;2023-02-20T02:08:26;99846.27;;;0.12;100.00
70971;BME280;58632;51.718;19.446;2023-02-20T02:13:17;99854.34;;;0.16;100.00
70971;BME280;58632;51.718;19.446;2023-02-20T02:15:43;99860.92;;;0.16;100.00
70971;BME280;58632;51.718;19.446;2023-02-20T02:18:19;99859.70;;;0.17;100.00
70971;BME280;58632;51.718;19.446;2023-02-20T02:26:12;99858.56;;;0.28;100.00
70971;BME280;58632;51.718;19.446;2023-02-20T02:36:52;99826.89;;;0.31;100.00
70971;BME280;58632;51.718;19.446;2023-02-20T02:41:48;99807.73;;;0.30;100.00
70971;BME280;58632;51.718;19.446;2023-02-20T02:44:18;99811.87;;;0.27;100.00
70971;BME280;58632;51.718;19.446;2023-02-20T02:46:49;99820.85;;;0.25;100.00
70971;BME280;58632;51.718;19.446;2023-02-20T02:49:29;99823.08;;;0.24;100.00
70971;BME280;58632;51.718;19.446;2023-02-20T02:51:58;99815.83;;;0.24;100.00
70971;BME280;58632;51.718;19.446;2023-02-20T02:54:26;99808.13;;;0.25;100.00
70971;BME280;58632;51.718;19.446;2023-02-20T02:56:52;99806.67;;;0.25;100.00
70971;BME280;58632;51.718;19.446;2023-02-20T02:59:22;99805.27;;;0.24;100.00
70971;BME280;58632;51.718;19.446;2023-02-20T03:01:49;99807.30;;;0.23;100.00
70971;BME280;58632;51.718;19.446;2023-02-20T03:04:17;99803.71;;;0.20;100.00
70971;BME280;58632;51.718;19.446;2023-02-20T03:06:48;99804.10;;;0.17;100.00
70971;BME280;58632;51.718;19.446;2023-02-20T03:09:16;99805.63;;;0.13;100.00
70971;BME280;58632;51.718;19.446;2023-02-20T03:11:45;99805.30;;;0.08;100.00
70971;BME280;58632;51.718;19.446;2023-02-20T03:14:11;99804.36;;;0.06;100.00
70971;BME280;58632;51.718;19.446;2023-02-20T03:19:40;99799.35;;;0.07;100.00
70971;BME280;58632;51.718;19.446;2023-02-20T03:22:09;99799.57;;;0.07;100.00
70971;BME280;58632;51.718;19.446;2023-02-20T03:24:37;99800.76;;;0.06;100.00
70971;BME280;58632;51.718;19.446;2023-02-20T03:27:21;99790.04;;;0.06;100.00
70971;BME280;58632;51.718;19.446;2023-02-20T03:29:47;99793.32;;;0.06;100.00
70971;BME280;58632;51.718;19.446;2023-02-20T03:32:14;99793.55;;;0.06;100.00
70971;BME280;58632;51.718;19.446;2023-02-20T03:34:59;99786.48;;;0.05;100.00
70971;BME280;58632;51.718;19.446;2023-02-20T03:37:45;99776.70;;;0.07;100.00
70971;BME280;58632;51.718;19.446;2023-02-20T03:40:31;99775.42;;;0.09;100.00
70971;BME280;58632;51.718;19.446;2023-02-20T03:43:16;99777.11;;;0.11;100.00
70971;BME280;58632;51.718;19.446;2023-02-20T03:45:49;99783.81;;;0.13;100.00
70971;BME280;58632;51.718;19.446;2023-02-20T03:48:19;99784.41;;;0.14;100.00
70971;BME280;58632;51.718;19.446;2023-02-20T03:50:46;99788.21;;;0.16;100.00
70971;BME280;58632;51.718;19.446;2023-02-20T03:53:30;99785.10;;;0.17;100.00
70971;BME280;58632;51.718;19.446;2023-02-20T03:55:58;99781.23;;;0.17;100.00
70971;BME280;58632;51.718;19.446;2023-02-20T03:58:25;99773.70;;;0.18;100.00
70971;BME280;58632;51.718;19.446;2023-02-20T04:00:51;99767.02;;;0.18;100.00
70971;BME280;58632;51.718;19.446;2023-02-20T04:03:20;99763.48;;;0.20;100.00
70971;BME280;58632;51.718;19.446;2023-02-20T04:05:47;99764.06;;;0.25;100.00
70971;BME280;58632;51.718;19.446;2023-02-20T04:08:21;99760.23;;;0.28;100.00
70971;BME280;58632;51.718;19.446;2023-02-20T04:10:54;99757.39;;;0.31;100.00
70971;BME280;58632;51.718;19.446;2023-02-20T04:13:21;99759.36;;;0.34;100.00
70971;BME280;58632;51.718;19.446;2023-02-20T04:15:48;99756.85;;;0.36;100.00
70971;BME280;58632;51.718;19.446;2023-02-20T04:18:15;99757.23;;;0.36;100.00
70971;BME280;58632;51.718;19.446;2023-02-20T04:20:42;99748.88;;;0.37;100.00
70971;BME280;58632;51.718;19.446;2023-02-20T04:23:12;99744.22;;;0.40;100.00
70971;BME280;58632;51.718;19.446;2023-02-20T04:25:44;99745.88;;;0.45;100.00
70971;BME280;58632;51.718;19.446;2023-02-20T04:28:12;99745.10;;;0.49;100.00
70971;BME280;58632;51.718;19.446;2023-02-20T04:30:38;99746.05;;;0.53;100.00
70971;BME280;58632;51.718;19.446;2023-02-20T04:33:04;99740.01;;;0.57;100.00
70971;BME280;58632;51.718;19.446;2023-02-20T04:35:29;99733.75;;;0.57;100.00
70971;BME280;58632;51.718;19.446;2023-02-20T04:37:55;99727.33;;;0.62;100.00
70971;BME280;58632;51.718;19.446;2023-02-20T04:40:21;99716.81;;;0.62;100.00
70971;BME280;58632;51.718;19.446;2023-02-20T04:42:47;99715.19;;;0.61;100.00
70971;BME280;58632;51.718;19.446;2023-02-20T04:45:13;99718.14;;;0.61;100.00
70971;BME280;58632;51.718;19.446;2023-02-20T04:47:39;99717.02;;;0.60;100.00
70971;BME280;58632;51.718;19.446;2023-02-20T04:50:04;99713.21;;;0.62;100.00
70971;BME280;58632;51.718;19.446;2023-02-20T04:52:30;99709.50;;;0.65;100.00
70971;BME280;58632;51.718;19.446;2023-02-20T04:54:56;99714.44;;;0.69;100.00
70971;BME280;58632;51.718;19.446;2023-02-20T04:57:21;99720.00;;;0.71;100.00
70971;BME280;58632;51.718;19.446;2023-02-20T04:59:47;99719.21;;;0.75;100.00
70971;BME280;58632;51.718;19.446;2023-02-20T05:02:13;99707.80;;;0.76;100.00
70971;BME280;58632;51.718;19.446;2023-02-20T05:04:38;99713.20;;;0.76;100.00
70971;BME280;58632;51.718;19.446;2023-02-20T05:07:04;99707.86;;;0.76;100.00
70971;BME280;58632;51.718;19.446;2023-02-20T05:09:30;99703.10;;;0.75;100.00
70971;BME280;58632;51.718;19.446;2023-02-20T05:11:56;99708.54;;;0.74;100.00
70971;BME280;58632;51.718;19.446;2023-02-20T05:14:21;99707.50;;;0.72;100.00
70971;BME280;58632;51.718;19.446;2023-02-20T05:16:47;99706.36;;;0.69;100.00
70971;BME280;58632;51.718;19.446;2023-02-20T05:19:13;99701.57;;;0.71;100.00
70971;BME280;58632;51.718;19.446;2023-02-20T05:21:45;99700.82;;;0.72;100.00
70971;BME280;58632;51.718;19.446;2023-02-20T05:24:30;99692.63;;;0.72;100.00
70971;BME280;58632;51.718;19.446;2023-02-20T05:26:56;99688.70;;;0.74;100.00
70971;BME280;58632;51.718;19.446;2023-02-20T05:29:22;99690.87;;;0.75;100.00
70971;BME280;58632;51.718;19.446;2023-02-20T05:31:48;99691.85;;;0.77;100.00
70971;BME280;58632;51.718;19.446;2023-02-20T05:34:14;99689.91;;;0.78;100.00
70971;BME280;58632;51.718;19.446;2023-02-20T05:36:39;99687.27;;;0.76;100.00
70971;BME280;58632;51.718;19.446;2023-02-20T05:39:05;99682.04;;;0.76;100.00
70971;BME280;58632;51.718;19.446;2023-02-20T05:41:30;99677.39;;;0.76;100.00
70971;BME280;58632;51.718;19.446;2023-02-20T05:43:56;99674.79;;;0.73;100.00
70971;BME280;58632;51.718;19.446;2023-02-20T05:46:26;99677.61;;;0.73;100.00
70971;BME280;58632;51.718;19.446;2023-02-20T05:48:52;99676.74;;;0.74;100.00
70971;BME280;58632;51.718;19.446;2023-02-20T05:51:18;99672.02;;;0.76;100.00
70971;BME280;58632;51.718;19.446;2023-02-20T05:53:44;99667.86;;;0.77;100.00
70971;BME280;58632;51.718;19.446;2023-02-20T05:56:10;99669.91;;;0.76;100.00
70971;BME280;58632;51.718;19.446;2023-02-20T05:58:36;99668.95;;;0.79;100.00
70971;BME280;58632;51.718;19.446;2023-02-20T06:01:01;99666.26;;;0.80;100.00
70971;BME280;58632;51.718;19.446;2023-02-20T06:03:27;99657.91;;;0.79;100.00
70971;BME280;58632;51.718;19.446;2023-02-20T06:05:53;99652.45;;;0.80;100.00
70971;BME280;58632;51.718;19.446;2023-02-20T06:08:20;99659.92;;;0.85;100.00
70971;BME280;58632;51.718;19.446;2023-02-20T06:10:46;99663.27;;;0.92;100.00
70971;BME280;58632;51.718;19.446;2023-02-20T06:13:11;99659.46;;;0.99;100.00
70971;BME280;58632;51.718;19.446;2023-02-20T06:15:37;99657.13;;;1.04;100.00
70971;BME280;58632;51.718;19.446;2023-02-20T06:18:03;99654.61;;;1.09;100.00
70971;BME280;58632;51.718;19.446;2023-02-20T06:20:28;99652.54;;;1.15;100.00
70971;BME280;58632;51.718;19.446;2023-02-20T06:22:54;99644.73;;;1.20;100.00
70971;BME280;58632;51.718;19.446;2023-02-20T06:25:21;99640.38;;;1.22;100.00
70971;BME280;58632;51.718;19.446;2023-02-20T06:27:47;99634.14;;;1.27;100.00
70971;BME280;58632;51.718;19.446;2023-02-20T06:30:12;99628.07;;;1.33;100.00
70971;BME280;58632;51.718;19.446;2023-02-20T06:32:38;99624.48;;;1.38;100.00
70971;BME280;58632;51.718;19.446;2023-02-20T06:35:04;99619.20;;;1.46;100.00
70971;BME280;58632;51.718;19.446;2023-02-20T06:37:29;99616.30;;;1.54;100.00
70971;BME280;58632;51.718;19.446;2023-02-20T06:39:55;99618.04;;;1.60;100.00
70971;BME280;58632;51.718;19.446;2023-02-20T06:42:21;99621.89;;;1.67;100.00
70971;BME280;58632;51.718;19.446;2023-02-20T06:44:46;99618.18;;;1.75;100.00
70971;BME280;58632;51.718;19.446;2023-02-20T06:47:12;99620.52;;;1.81;100.00
70971;BME280;58632;51.718;19.446;2023-02-20T06:49:37;99622.58;;;1.86;100.00
70971;BME280;58632;51.718;19.446;2023-02-20T06:52:06;99616.13;;;1.91;100.00
70971;BME280;58632;51.718;19.446;2023-02-20T06:54:32;99613.19;;;1.98;100.00
70971;BME280;58632;51.718;19.446;2023-02-20T06:56:58;99602.59;;;2.04;100.00
70971;BME280;58632;51.718;19.446;2023-02-20T06:59:24;99597.69;;;2.12;100.00
70971;BME280;58632;51.718;19.446;2023-02-20T07:01:50;99595.56;;;2.21;100.00
70971;BME280;58632;51.718;19.446;2023-02-20T07:04:16;99594.71;;;2.23;100.00
70971;BME280;58632;51.718;19.446;2023-02-20T07:06:42;99597.89;;;2.29;100.00
70971;BME280;58632;51.718;19.446;2023-02-20T07:09:08;99597.61;;;2.35;100.00
70971;BME280;58632;51.718;19.446;2023-02-20T07:11:34;99596.73;;;2.45;100.00
70971;BME280;58632;51.718;19.446;2023-02-20T07:13:59;99596.60;;;2.56;100.00
70971;BME280;58632;51.718;19.446;2023-02-20T07:16:25;99596.33;;;2.62;100.00
70971;BME280;58632;51.718;19.446;2023-02-20T07:18:50;99595.83;;;2.67;100.00
70971;BME280;58632;51.718;19.446;2023-02-20T07:21:16;99590.25;;;2.73;100.00
70971;BME280;58632;51.718;19.446;2023-02-20T07:23:43;99578.00;;;2.80;100.00
70971;BME280;58632;51.718;19.446;2023-02-20T07:26:15;99579.92;;;2.88;100.00
70971;BME280;58632;51.718;19.446;2023-02-20T07:28:41;99580.92;;;2.99;100.00
70971;BME280;58632;51.718;19.446;2023-02-20T07:31:07;99579.61;;;3.13;100.00
70971;BME280;58632;51.718;19.446;2023-02-20T07:33:32;99562.70;;;3.29;100.00
70971;BME280;58632;51.718;19.446;2023-02-20T07:35:58;99557.63;;;3.43;100.00
70971;BME280;58632;51.718;19.446;2023-02-20T07:38:23;99553.68;;;3.59;100.00
70971;BME280;58632;51.718;19.446;2023-02-20T07:40:49;99551.81;;;3.70;100.00
70971;BME280;58632;51.718;19.446;2023-02-20T07:43:15;99550.30;;;3.78;100.00
70971;BME280;58632;51.718;19.446;2023-02-20T07:45:41;99549.68;;;3.88;100.00
70971;BME280;58632;51.718;19.446;2023-02-20T07:48:06;99553.48;;;3.95;100.00
70971;BME280;58632;51.718;19.446;2023-02-20T07:50:32;99555.09;;;4.01;100.00
70971;BME280;58632;51.718;19.446;2023-02-20T07:52:58;99549.44;;;4.06;100.00
70971;BME280;58632;51.718;19.446;2023-02-20T07:55:23;99543.20;;;4.11;100.00
70971;BME280;58632;51.718;19.446;2023-02-20T07:57:49;99520.80;;;4.18;100.00
70971;BME280;58632;51.718;19.446;2023-02-20T08:00:18;99512.02;;;4.18;100.00
70971;BME280;58632;51.718;19.446;2023-02-20T08:02:44;99519.89;;;4.12;100.00
70971;BME280;58632;51.718;19.446;2023-02-20T08:05:10;99524.14;;;4.04;100.00
70971;BME280;58632;51.718;19.446;2023-02-20T08:07:36;99523.90;;;3.99;100.00
70971;BME280;58632;51.718;19.446;2023-02-20T08:10:02;99521.84;;;3.95;100.00
70971;BME280;58632;51.718;19.446;2023-02-20T08:12:28;99522.71;;;3.87;100.00
70971;BME280;58632;51.718;19.446;2023-02-20T08:14:53;99515.88;;;3.81;100.00
70971;BME280;58632;51.718;19.446;2023-02-20T08:17:19;99500.65;;;3.76;100.00
70971;BME280;58632;51.718;19.446;2023-02-20T08:19:44;99496.36;;;3.76;100.00
70971;BME280;58632;51.718;19.446;2023-02-20T08:22:10;99491.91;;;3.83;100.00
70971;BME280;58632;51.718;19.446;2023-02-20T08:24:36;99485.73;;;3.89;100.00
70971;BME280;58632;51.718;19.446;2023-02-20T08:27:02;99479.27;;;3.92;100.00
70971;BME280;58632;51.718;19.446;2023-02-20T08:29:27;99478.93;;;3.93;100.00
70971;BME280;58632;51.718;19.446;2023-02-20T08:31:53;99469.70;;;3.92;100.00
70971;BME280;58632;51.718;19.446;2023-02-20T08:34:19;99464.69;;;3.92;100.00
70971;BME280;58632;51.718;19.446;2023-02-20T08:36:44;99460.61;;;3.94;100.00
70971;BME280;58632;51.718;19.446;2023-02-20T08:39:10;99459.14;;;3.95;100.00
70971;BME280;58632;51.718;19.446;2023-02-20T08:41:40;99454.80;;;4.00;100.00
70971;BME280;58632;51.718;19.446;2023-02-20T08:44:06;99449.02;;;4.06;100.00
70971;BME280;58632;51.718;19.446;2023-02-20T08:46:32;99440.83;;;4.11;100.00
70971;BME280;58632;51.718;19.446;2023-02-20T08:48:58;99441.52;;;4.12;100.00
70971;BME280;58632;51.718;19.446;2023-02-20T08:51:23;99441.20;;;4.16;100.00
70971;BME280;58632;51.718;19.446;2023-02-20T08:53:50;99438.06;;;4.16;100.00
70971;BME280;58632;51.718;19.446;2023-02-20T08:56:17;99439.60;;;4.13;100.00
70971;BME280;58632;51.718;19.446;2023-02-20T08:58:42;99438.42;;;4.12;100.00
70971;BME280;58632;51.718;19.446;2023-02-20T09:01:08;99435.71;;;4.08;100.00
70971;BME280;58632;51.718;19.446;2023-02-20T09:03:33;99429.09;;;4.09;100.00
70971;BME280;58632;51.718;19.446;2023-02-20T09:06:04;99426.21;;;4.10;100.00
70971;BME280;58632;51.718;19.446;2023-02-20T09:08:29;99422.42;;;4.09;100.00
70971;BME280;58632;51.718;19.446;2023-02-20T09:10:55;99421.36;;;4.01;100.00
70971;BME280;58632;51.718;19.446;2023-02-20T09:13:20;99414.39;;;3.99;100.00
70971;BME280;58632;51.718;19.446;2023-02-20T09:15:46;99408.63;;;3.96;100.00
70971;BME280;58632;51.718;19.446;2023-02-20T09:18:12;99400.90;;;3.90;100.00
70971;BME280;58632;51.718;19.446;2023-02-20T09:20:38;99400.00;;;3.88;100.00
70971;BME280;58632;51.718;19.446;2023-02-20T09:23:04;99397.89;;;3.86;100.00
70971;BME280;58632;51.718;19.446;2023-02-20T09:25:30;99386.78;;;3.88;100.00
70971;BME280;58632;51.718;19.446;2023-02-20T09:27:56;99384.83;;;3.87;100.00
70971;BME280;58632;51.718;19.446;2023-02-20T09:30:21;99388.45;;;3.89;100.00
70971;BME280;58632;51.718;19.446;2023-02-20T09:32:47;99385.48;;;3.93;100.00
70971;BME280;58632;51.718;19.446;2023-02-20T09:35:16;99377.73;;;3.92;100.00
70971;BME280;58632;51.718;19.446;2023-02-20T09:37:42;99370.32;;;3.92;100.00
70971;BME280;58632;51.718;19.446;2023-02-20T09:40:09;99362.40;;;3.93;100.00
70971;BME280;58632;51.718;19.446;2023-02-20T09:45:19;99340.02;;;3.93;100.00
70971;BME280;58632;51.718;19.446;2023-02-20T09:50:14;99324.67;;;3.94;100.00
70971;BME280;58632;51.718;19.446;2023-02-20T09:52:41;99315.52;;;3.94;100.00
70971;BME280;58632;51.718;19.446;2023-02-20T09:55:11;99305.52;;;3.97;100.00
70971;BME280;58632;51.718;19.446;2023-02-20T09:57:37;99300.52;;;4.01;100.00
70971;BME280;58632;51.718;19.446;2023-02-20T10:02:38;99292.35;;;4.18;100.00
70971;BME280;58632;51.718;19.446;2023-02-20T10:05:08;99291.61;;;4.28;100.00
70971;BME280;58632;51.718;19.446;2023-02-20T10:07:39;99284.40;;;4.36;100.00
70971;BME280;58632;51.718;19.446;2023-02-20T10:10:22;99283.19;;;4.38;100.00
70971;BME280;58632;51.718;19.446;2023-02-20T10:15:19;99274.38;;;4.28;100.00
70971;BME280;58632;51.718;19.446;2023-02-20T10:20:31;99262.33;;;4.29;100.00
70971;BME280;58632;51.718;19.446;2023-02-20T10:25:59;99238.56;;;4.34;100.00
70971;BME280;58632;51.718;19.446;2023-02-20T10:28:27;99226.09;;;4.39;100.00
70971;BME280;58632;51.718;19.446;2023-02-20T10:33:39;99204.05;;;4.50;100.00
70971;BME280;58632;51.718;19.446;2023-02-20T10:39:21;99185.56;;;4.57;100.00
70971;BME280;58632;51.718;19.446;2023-02-20T10:41:31;99176.77;;;4.60;100.00
70971;BME280;58632;51.718;19.446;2023-02-20T10:46:35;99163.02;;;4.62;100.00
70971;BME280;58632;51.718;19.446;2023-02-20T10:49:03;99156.64;;;4.67;100.00
70971;BME280;58632;51.718;19.446;2023-02-20T10:51:33;99148.25;;;4.72;100.00
70971;BME280;58632;51.718;19.446;2023-02-20T10:54:09;99143.55;;;4.77;100.00
70971;BME280;58632;51.718;19.446;2023-02-20T10:56:38;99136.89;;;4.80;100.00
70971;BME280;58632;51.718;19.446;2023-02-20T10:59:12;99136.05;;;4.78;100.00
70971;BME280;58632;51.718;19.446;2023-02-20T11:01:42;99133.42;;;4.80;100.00
70971;BME280;58632;51.718;19.446;2023-02-20T11:04:09;99121.23;;;4.78;100.00
70971;BME280;58632;51.718;19.446;2023-02-20T11:06:39;99107.52;;;4.74;100.00
70971;BME280;58632;51.718;19.446;2023-02-20T11:09:04;99108.48;;;4.76;100.00
70971;BME280;58632;51.718;19.446;2023-02-20T11:11:32;99100.27;;;4.77;100.00
70971;BME280;58632;51.718;19.446;2023-02-20T11:13:59;99088.32;;;4.84;100.00
70971;BME280;58632;51.718;19.446;2023-02-20T11:16:27;99092.36;;;4.88;100.00
70971;BME280;58632;51.718;19.446;2023-02-20T11:18:55;99092.16;;;4.86;100.00
70971;BME280;58632;51.718;19.446;2023-02-20T11:21:36;99082.64;;;4.80;100.00
70971;BME280;58632;51.718;19.446;2023-02-20T11:24:16;99064.42;;;4.70;100.00
70971;BME280;58632;51.718;19.446;2023-02-20T11:26:42;99044.84;;;4.64;100.00
70971;BME280;58632;51.718;19.446;2023-02-20T11:29:12;99026.23;;;4.73;100.00
70971;BME280;58632;51.718;19.446;2023-02-20T11:31:40;99034.68;;;4.82;100.00
70971;BME280;58632;51.718;19.446;2023-02-20T11:34:09;99025.73;;;4.82;100.00
70971;BME280;58632;51.718;19.446;2023-02-20T11:36:38;99020.60;;;4.84;100.00
70971;BME280;58632;51.718;19.446;2023-02-20T11:41:47;98999.52;;;5.08;100.00
70971;BME280;58632;51.718;19.446;2023-02-20T11:44:22;98985.77;;;5.27;100.00
70971;BME280;58632;51.718;19.446;2023-02-20T11:47:08;98987.22;;;5.44;100.00
70971;BME280;58632;51.718;19.446;2023-02-20T11:49:33;98972.94;;;5.53;100.00
70971;BME280;58632;51.718;19.446;2023-02-20T11:52:07;98976.88;;;5.61;100.00
70971;BME280;58632;51.718;19.446;2023-02-20T11:54:33;98965.42;;;5.69;100.00
70971;BME280;58632;51.718;19.446;2023-02-20T11:59:29;98961.50;;;5.85;100.00
70971;BME280;58632;51.718;19.446;2023-02-20T12:01:58;98944.88;;;5.94;100.00
70971;BME280;58632;51.718;19.446;2023-02-20T12:04:34;98922.38;;;5.99;100.00
70971;BME280;58632;51.718;19.446;2023-02-20T12:07:00;98915.34;;;6.02;100.00
70971;BME280;58632;51.718;19.446;2023-02-20T12:09:41;98895.41;;;6.11;100.00
70971;BME280;58632;51.718;19.446;2023-02-20T12:12:10;98899.13;;;6.22;100.00
70971;BME280;58632;51.718;19.446;2023-02-20T12:14:37;98885.61;;;6.32;100.00
70971;BME280;58632;51.718;19.446;2023-02-20T12:17:05;98877.39;;;6.33;100.00
70971;BME280;58632;51.718;19.446;2023-02-20T12:19:51;98870.73;;;6.34;100.00
70971;BME280;58632;51.718;19.446;2023-02-20T12:22:21;98847.36;;;6.39;100.00
70971;BME280;58632;51.718;19.446;2023-02-20T12:30:09;98815.30;;;6.47;100.00
70971;BME280;58632;51.718;19.446;2023-02-20T12:32:45;98808.54;;;6.55;100.00
70971;BME280;58632;51.718;19.446;2023-02-20T12:35:31;98806.53;;;6.62;100.00
70971;BME280;58632;51.718;19.446;2023-02-20T12:48:41;98755.95;;;7.06;100.00
70971;BME280;58632;51.718;19.446;2023-02-20T12:51:16;98754.04;;;7.12;100.00
70971;BME280;58632;51.718;19.446;2023-02-20T12:53:49;98751.75;;;7.18;100.00
70971;BME280;58632;51.718;19.446;2023-02-20T12:56:20;98744.44;;;7.22;100.00
70971;BME280;58632;51.718;19.446;2023-02-20T12:59:12;98741.25;;;7.28;100.00
70971;BME280;58632;51.718;19.446;2023-02-20T13:01:42;98737.30;;;7.38;100.00
70971;BME280;58632;51.718;19.446;2023-02-20T13:06:35;98727.54;;;7.51;100.00
70971;BME280;58632;51.718;19.446;2023-02-20T13:09:05;98719.11;;;7.53;100.00
70971;BME280;58632;51.718;19.446;2023-02-20T13:11:34;98723.36;;;7.62;100.00
70971;BME280;58632;51.718;19.446;2023-02-20T13:16:36;98709.92;;;7.79;100.00
70971;BME280;58632;51.718;19.446;2023-02-20T13:21:30;98698.17;;;7.92;100.00
70971;BME280;58632;51.718;19.446;2023-02-20T13:29:11;98707.98;;;7.94;100.00
70971;BME280;58632;51.718;19.446;2023-02-20T13:47:26;98685.25;;;7.60;100.00
70971;BME280;58632;51.718;19.446;2023-02-20T13:57:49;98671.43;;;7.49;100.00
70971;BME280;58632;51.718;19.446;2023-02-20T14:02:58;98669.04;;;7.47;100.00
70971;BME280;58632;51.718;19.446;2023-02-20T14:05:28;98673.29;;;7.45;100.00
70971;BME280;58632;51.718;19.446;2023-02-20T14:07:54;98667.79;;;7.41;100.00
70971;BME280;58632;51.718;19.446;2023-02-20T14:10:25;98665.27;;;7.40;100.00
70971;BME280;58632;51.718;19.446;2023-02-20T14:12:52;98674.11;;;7.40;100.00
70971;BME280;58632;51.718;19.446;2023-02-20T14:15:19;98664.66;;;7.39;100.00
70971;BME280;58632;51.718;19.446;2023-02-20T14:17:44;98655.85;;;7.38;100.00
70971;BME280;58632;51.718;19.446;2023-02-20T14:20:14;98652.61;;;7.35;100.00
70971;BME280;58632;51.718;19.446;2023-02-20T14:22:42;98639.09;;;7.34;100.00
70971;BME280;58632;51.718;19.446;2023-02-20T14:27:37;98647.88;;;7.37;100.00
70971;BME280;58632;51.718;19.446;2023-02-20T14:32:41;98636.01;;;7.39;100.00
70971;BME280;58632;51.718;19.446;2023-02-20T14:35:10;98642.69;;;7.38;100.00
70971;BME280;58632;51.718;19.446;2023-02-20T14:37:43;98642.56;;;7.37;100.00
70971;BME280;58632;51.718;19.446;2023-02-20T14:40:18;98629.00;;;7.37;100.00
70971;BME280;58632;51.718;19.446;2023-02-20T14:42:46;98625.50;;;7.39;100.00
70971;BME280;58632;51.718;19.446;2023-02-20T14:45:13;98633.96;;;7.40;100.00
70971;BME280;58632;51.718;19.446;2023-02-20T14:47:58;98641.86;;;7.43;100.00